Time;durP1;ratioP1;P1;durP2;ratioP2;P2;SDS_P1;SDS_P2;PMS_P1;PMS_P2;Temp;Humidity;BMP_temperature;BMP_pressure;BME280_temperature;BME280_humidity;BME280_pressure;Samples;Min_cycle;Max_cycle;Signal;HPM_P1;HPM_P2
2022/05/30 00:01:22;;;;;;;2.50;1.50;;;12.90;54.20;;;8.88;67.48;94784.19;5076643;28;20107;-49
2022/05/30 00:03:52;;;;;;;2.03;1.38;;;12.80;54.30;;;8.81;67.50;94781.81;5078994;28;20210;-49
2022/05/30 00:06:21;;;;;;;2.20;1.33;;;12.80;54.20;;;8.72;67.75;94770.97;5086976;28;20035;-50
2022/05/30 00:08:47;;;;;;;2.00;1.58;;;12.80;54.30;;;8.71;67.64;94766.72;5075718;28;20120;-48
2022/05/30 00:11:15;;;;;;;2.33;1.40;;;12.80;54.40;;;8.74;67.59;94774.16;5074815;28;20455;-49
2022/05/30 00:13:45;;;;;;;2.17;1.25;;;12.80;54.60;;;8.76;67.65;94771.19;5074823;28;20108;-49
2022/05/30 00:16:16;;;;;;;2.60;1.50;;;12.80;54.60;;;8.78;67.74;94777.84;5075788;28;20028;-48
2022/05/30 00:18:42;;;;;;;2.85;1.50;;;12.80;54.60;;;8.80;67.94;94778.34;5074555;28;20094;-49
2022/05/30 00:21:12;;;;;;;1.92;1.48;;;12.80;54.60;;;8.76;67.43;94776.53;5075872;28;20166;-49
2022/05/30 00:23:40;;;;;;;2.95;1.33;;;12.80;54.60;;;8.79;67.59;94776.75;5075608;28;20036;-49
2022/05/30 00:26:08;;;;;;;3.70;2.05;;;12.70;54.50;;;8.74;67.93;94760.88;5075725;28;20024;-50
2022/05/30 00:28:35;;;;;;;3.47;1.20;;;12.80;54.50;;;8.71;67.90;94771.22;5074188;28;20029;-49
2022/05/30 00:31:13;;;;;;;2.33;1.35;;;12.80;54.60;;;8.73;67.97;94775.19;5075584;28;20039;-48
2022/05/30 00:33:44;;;;;;;3.78;1.48;;;12.70;54.70;;;8.67;68.12;94768.31;5075173;28;20032;-52
2022/05/30 00:36:13;;;;;;;2.97;1.45;;;12.70;54.80;;;8.69;67.89;94768.84;5060924;28;20039;-49
2022/05/30 00:38:39;;;;;;;2.22;1.50;;;12.70;54.80;;;8.72;68.16;94762.22;5078402;28;20033;-47
2022/05/30 00:41:06;;;;;;;4.57;2.00;;;12.70;54.70;;;8.72;68.03;94770.16;5073929;28;20383;-49
2022/05/30 00:43:41;;;;;;;2.08;1.48;;;12.70;54.80;;;8.69;67.80;94766.19;5075329;28;20028;-48
2022/05/30 00:46:18;;;;;;;3.80;1.40;;;12.70;54.80;;;8.63;68.28;94767.28;5074019;28;20021;-48
2022/05/30 00:49:07;;;;;;;1.45;1.27;;;12.70;54.90;;;8.72;67.44;94770.97;5058636;28;20395;-49
2022/05/30 00:51:47;;;;;;;5.22;1.30;;;12.70;54.80;;;8.73;67.74;94775.19;5051364;28;20039;-49
2022/05/30 00:54:24;;;;;;;2.47;1.60;;;12.70;54.70;;;8.73;68.46;94780.50;5057178;28;20033;-48
2022/05/30 00:56:59;;;;;;;4.22;1.33;;;12.60;54.60;;;8.63;68.27;94769.94;5048346;28;20029;-53
2022/05/30 00:59:43;;;;;;;1.30;1.20;;;12.60;54.60;;;8.63;68.17;94771.78;5075652;28;20111;-48
2022/05/30 01:02:11;;;;;;;2.22;1.30;;;12.60;54.60;;;8.61;68.90;94768.59;5073739;28;20080;-49
2022/05/30 01:07:26;;;;;;;2.55;1.80;;;12.50;54.50;;;8.43;69.46;94768.16;5079411;28;20038;-50
2022/05/30 01:09:55;;;;;;;1.98;1.27;;;12.50;54.70;;;8.39;70.12;94761.78;5073885;28;20070;-50
2022/05/30 01:12:58;;;;;;;2.33;1.65;;;12.40;54.80;;;8.29;70.44;94759.91;5056904;28;20027;-50
2022/05/30 01:15:30;;;;;;;5.00;1.80;;;12.40;55.00;;;8.17;71.12;94759.41;5073652;28;20038;-47
2022/05/30 01:18:20;;;;;;;1.67;1.50;;;12.30;55.20;;;8.04;71.53;94747.50;5073569;28;20032;-48
2022/05/30 01:20:49;;;;;;;3.45;1.63;;;12.20;55.50;;;8.09;71.74;94754.69;5073661;28;20097;-50
2022/05/30 01:23:43;;;;;;;2.38;1.70;;;12.20;55.70;;;8.06;72.08;94756.00;5075074;28;20024;-52
2022/05/30 01:26:42;;;;;;;2.40;1.70;;;12.10;55.90;;;8.00;71.86;94748.31;5073800;28;20157;-52
2022/05/30 01:29:46;;;;;;;2.20;1.70;;;12.00;56.00;;;7.88;72.48;94743.31;5073079;28;20031;-49
2022/05/30 01:32:19;;;;;;;2.90;1.92;;;11.90;56.00;;;7.81;73.01;94754.19;5070023;28;20037;-48
2022/05/30 01:34:44;;;;;;;3.60;1.83;;;11.90;56.20;;;7.78;73.11;94746.75;5073202;28;20031;-48
2022/05/30 01:37:10;;;;;;;4.63;1.92;;;11.80;56.20;;;7.74;73.46;94744.91;5074191;28;20032;-48
2022/05/30 01:39:36;;;;;;;5.15;3.25;;;11.80;56.40;;;7.69;73.55;94739.63;5074238;28;20425;-49
2022/05/30 01:42:02;;;;;;;3.67;2.28;;;11.70;56.60;;;7.65;73.83;94734.06;5074343;28;20021;-48
2022/05/30 01:44:33;;;;;;;3.90;2.00;;;11.70;56.70;;;7.58;73.87;94742.28;5072845;28;20033;-47
2022/05/30 01:47:05;;;;;;;2.25;1.88;;;11.60;56.80;;;7.52;74.35;94740.69;5072918;28;20584;-49
2022/05/30 01:49:34;;;;;;;2.53;2.20;;;11.60;57.00;;;7.47;74.77;94739.88;5074133;28;20168;-51
2022/05/30 01:52:12;;;;;;;4.88;2.08;;;11.50;57.00;;;7.38;74.98;94743.06;5087366;28;20077;-49
2022/05/30 01:54:38;;;;;;;2.33;2.05;;;11.40;57.20;;;7.33;75.42;94740.41;5072588;28;20503;-50
2022/05/30 01:57:05;;;;;;;3.10;2.10;;;11.30;57.10;;;7.28;75.24;94729.81;5083166;28;20054;-48
2022/05/30 01:59:34;;;;;;;4.47;2.45;;;11.30;57.10;;;7.09;76.44;94713.63;5091186;28;20036;-47
2022/05/30 02:02:08;;;;;;;2.83;2.10;;;11.20;57.40;;;7.14;76.20;94716.28;5072626;28;20024;-51
2022/05/30 02:04:42;;;;;;;4.20;2.30;;;11.10;57.60;;;7.07;76.86;94715.75;5087045;28;20041;-47
2022/05/30 02:07:11;;;;;;;3.20;2.47;;;11.00;57.90;;;7.08;76.98;94716.53;5081708;28;20032;-49
2022/05/30 02:09:37;;;;;;;4.45;2.50;;;11.00;58.10;;;7.09;77.28;94708.34;5073732;28;20483;-49
2022/05/30 02:12:10;;;;;;;3.13;2.20;;;11.00;58.40;;;7.11;77.20;94705.41;5072714;28;20033;-48
2022/05/30 02:14:46;;;;;;;2.45;2.25;;;11.00;58.70;;;7.01;76.88;94702.75;5072470;28;20052;-49
2022/05/30 02:17:12;;;;;;;2.83;2.30;;;11.00;58.80;;;7.07;76.22;94713.09;5073288;28;20032;-47
2022/05/30 02:19:44;;;;;;;3.08;2.42;;;11.00;58.50;;;6.92;77.60;94727.09;5072297;28;20025;-49
2022/05/30 02:22:32;;;;;;;4.47;2.93;;;10.90;58.50;;;6.81;78.41;94714.91;5055666;28;20024;-48
2022/05/30 02:24:59;;;;;;;4.85;2.60;;;10.80;58.80;;;6.80;78.41;94712.50;5055382;28;20039;-48
2022/05/30 02:27:28;;;;;;;3.53;2.50;;;10.80;58.80;;;6.83;78.87;94707.50;5056907;28;20034;-48
2022/05/30 02:29:53;;;;;;;4.28;2.47;;;10.80;59.20;;;6.84;78.69;94717.03;5074694;28;20028;-48
2022/05/30 02:32:20;;;;;;;3.22;2.70;;;10.70;59.20;;;6.84;78.92;94711.75;5074620;28;20491;-48
2022/05/30 02:37:49;;;;;;;5.95;2.75;;;10.80;60.00;;;6.84;78.66;94719.69;5073023;28;20541;-49
2022/05/30 02:40:18;;;;;;;5.60;2.78;;;10.70;59.50;;;6.79;78.46;94718.88;5073066;28;20028;-47
2022/05/30 02:42:44;;;;;;;3.47;2.90;;;10.70;59.40;;;6.67;79.07;94722.53;5073013;28;20082;-50
2022/05/30 02:45:16;;;;;;;5.70;3.30;;;10.60;59.30;;;6.57;80.21;94724.38;5072907;28;20440;-48
2022/05/30 02:47:47;;;;;;;4.90;3.08;;;10.60;59.60;;;6.52;80.70;94717.22;5072983;28;20021;-48
2022/05/30 02:50:13;;;;;;;5.55;2.97;;;10.50;59.70;;;6.47;80.40;94722.47;5071366;28;20026;-48
2022/05/30 02:52:39;;;;;;;3.88;2.72;;;10.50;59.60;;;6.41;80.88;94723.53;5072926;28;20024;-48
2022/05/30 02:55:05;;;;;;;3.28;2.70;;;10.40;59.60;;;6.33;81.48;94726.66;5093073;22;20032;-50
2022/05/30 02:57:33;;;;;;;4.90;2.90;;;10.40;59.70;;;6.27;81.17;94731.16;5071764;28;20052;-45
2022/05/30 03:00:04;;;;;;;4.80;3.28;;;10.30;60.00;;;6.25;81.67;94731.38;5071287;28;20021;-45
2022/05/30 03:02:38;;;;;;;3.47;3.03;;;10.30;60.30;;;6.24;81.44;94729.00;5071107;28;20073;-46
2022/05/30 03:05:05;;;;;;;4.70;3.35;;;10.20;60.40;;;6.16;81.78;94721.56;5072615;28;20059;-47
2022/05/30 03:07:33;;;;;;;3.92;2.90;;;10.20;60.40;;;6.17;81.83;94729.25;5092869;28;20032;-47
2022/05/30 03:09:59;;;;;;;3.65;2.88;;;10.20;60.70;;;6.14;81.87;94732.41;5092864;28;20043;-49
2022/05/30 03:12:28;;;;;;;6.07;3.47;;;10.10;60.50;;;6.07;81.80;94733.69;5091815;28;20036;-47
2022/05/30 03:14:53;;;;;;;6.13;3.85;;;10.10;60.70;;;5.98;81.98;94733.34;5091521;28;20081;-48
2022/05/30 03:17:19;;;;;;;4.70;3.92;;;10.00;60.60;;;5.90;82.34;94731.19;5092477;28;20036;-47
2022/05/30 03:19:45;;;;;;;5.35;4.25;;;10.00;60.70;;;5.85;82.58;94729.28;5093066;28;20155;-49
2022/05/30 03:22:10;;;;;;;5.85;4.20;;;9.90;60.80;;;5.81;83.16;94738.78;5092634;28;20024;-48
2022/05/30 03:24:39;;;;;;;5.18;3.58;;;9.90;61.00;;;5.79;83.20;94736.38;5092688;28;20028;-50
2022/05/30 03:27:11;;;;;;;4.88;3.65;;;9.80;61.20;;;5.78;83.53;94739.28;5092567;28;20035;-47
2022/05/30 03:29:44;;;;;;;6.47;3.60;;;9.80;61.80;;;5.74;83.75;94736.38;5092604;28;20073;-47
2022/05/30 03:32:10;;;;;;;5.40;3.70;;;9.80;61.80;;;5.74;83.96;94739.00;5092590;28;20383;-47
2022/05/30 03:34:35;;;;;;;6.80;4.45;;;9.80;62.00;;;5.73;83.98;94736.59;5091254;28;20031;-45
2022/05/30 03:37:10;;;;;;;6.22;4.57;;;9.80;62.20;;;5.71;84.08;94746.66;5092264;28;20110;-47
2022/05/30 03:39:48;;;;;;;6.63;4.38;;;9.80;62.40;;;5.68;83.95;94741.88;5091390;28;20024;-47
2022/05/30 03:42:14;;;;;;;4.70;4.20;;;9.70;62.30;;;5.63;84.01;94741.84;5091060;28;20060;-47
2022/05/30 03:44:43;;;;;;;8.57;4.82;;;9.70;62.20;;;5.57;84.08;94747.06;5092268;28;20394;-46
2022/05/30 03:47:12;;;;;;;5.57;4.03;;;9.70;62.40;;;5.57;84.55;94746.28;5091236;28;20394;-46
2022/05/30 03:49:39;;;;;;;7.35;4.53;;;9.70;62.50;;;5.56;85.36;94745.47;5092455;28;20063;-47
2022/05/30 03:52:06;;;;;;;7.97;5.07;;;9.60;62.60;;;5.56;85.38;94752.63;5091262;28;20080;-46
2022/05/30 03:54:32;;;;;;;6.05;4.25;;;9.60;62.90;;;5.59;85.04;94749.47;5090911;28;20520;-47
2022/05/30 03:56:58;;;;;;;5.97;3.55;;;9.70;62.90;;;5.56;84.79;94753.41;5073775;28;20132;-49
2022/05/30 03:59:36;;;;;;;4.05;3.38;;;9.70;63.20;;;5.59;84.50;94753.97;5047254;28;20508;-51
2022/05/30 04:02:02;;;;;;;5.93;3.38;;;9.70;63.20;;;5.61;84.60;94757.13;5071002;28;20025;-46
2022/05/30 04:04:34;;;;;;;8.00;3.80;;;9.70;63.10;;;5.59;84.12;94760.03;5065362;28;20024;-47
2022/05/30 04:07:00;;;;;;;5.38;3.03;;;9.70;63.40;;;5.62;84.05;94759.53;5090977;28;20428;-50
2022/05/30 04:09:26;;;;;;;4.43;3.05;;;9.70;63.30;;;5.63;83.71;94771.69;5090801;28;20032;-46
2022/05/30 04:12:07;;;;;;;6.90;3.13;;;9.70;63.30;;;5.64;83.35;94775.94;5092271;28;20028;-50
2022/05/30 04:14:33;;;;;;;4.38;2.65;;;9.80;63.30;;;5.62;83.17;94770.09;5092068;28;20032;-51
2022/05/30 04:17:02;;;;;;;4.63;3.20;;;9.70;63.00;;;5.58;83.20;94763.75;5090853;28;20089;-48
2022/05/30 04:19:28;;;;;;;4.93;2.97;;;9.80;63.10;;;5.58;83.00;94753.16;5074018;28;20088;-48
2022/05/30 04:21:53;;;;;;;7.15;2.88;;;9.80;63.00;;;5.61;83.03;94765.06;5073894;28;20119;-48
2022/05/30 04:24:19;;;;;;;7.82;3.00;;;9.80;63.00;;;5.74;82.77;94764.66;5091963;28;20085;-48
2022/05/30 04:26:48;;;;;;;4.45;3.03;;;9.80;62.90;;;5.99;82.47;94759.56;5092030;28;20024;-46
2022/05/30 04:29:13;;;;;;;6.75;3.70;;;9.90;63.00;;;6.38;81.76;94767.16;5090875;28;20051;-47
2022/05/30 04:31:42;;;;;;;6.38;3.60;;;10.00;62.90;;;6.69;80.59;94773.38;5090690;28;20024;-47
2022/05/30 04:34:11;;;;;;;5.63;3.20;;;10.20;62.80;;;7.04;79.30;94781.69;5090572;28;20020;-50
2022/05/30 04:36:36;;;;;;;4.70;3.03;;;10.40;62.60;;;7.35;78.45;94774.59;5091756;28;20394;-46
2022/05/30 04:39:08;;;;;;;7.00;2.88;;;10.60;62.30;;;7.61;76.86;94778.81;5091855;28;20107;-48
2022/05/30 04:41:34;;;;;;;6.05;2.92;;;10.80;61.90;;;7.91;75.52;94785.19;5091992;28;20021;-46
2022/05/30 04:44:01;;;;;;;6.18;2.90;;;11.00;61.60;;;8.12;74.35;94778.00;5090746;28;20431;-47
2022/05/30 04:46:33;;;;;;;8.80;3.13;;;11.20;61.20;;;8.29;73.50;94780.34;5090510;28;20086;-47
2022/05/30 04:48:59;;;;;;;4.10;2.80;;;11.50;61.00;;;8.48;73.29;94781.38;5091535;28;20036;-47
2022/05/30 04:51:26;;;;;;;5.05;3.03;;;11.70;60.70;;;8.57;73.34;94782.44;5091798;28;20031;-47
2022/05/30 04:53:52;;;;;;;4.78;2.90;;;11.80;60.50;;;8.65;73.46;94773.13;5092679;28;20035;-51
2022/05/30 04:56:19;;;;;;;7.47;3.03;;;12.00;60.30;;;8.83;72.82;94777.00;5071056;28;20076;-47
2022/05/30 04:58:50;;;;;;;5.18;2.88;;;12.20;60.10;;;8.96;72.38;94776.44;5043829;28;20065;-49
2022/05/30 05:01:17;;;;;;;3.85;2.83;;;12.50;60.10;;;9.03;71.95;94776.13;5072145;28;20043;-50
2022/05/30 05:03:45;;;;;;;3.20;2.70;;;12.60;59.70;;;9.20;71.55;94787.19;5057083;28;20075;-47
2022/05/30 05:06:19;;;;;;;3.97;2.50;;;12.90;59.50;;;9.36;71.31;94782.56;5073896;28;20375;-46
2022/05/30 05:08:50;;;;;;;;;;;13.10;59.20;;;9.52;70.77;94780.59;5074227;28;20103;-46
2022/05/30 05:11:37;;;;;;;3.78;2.50;;;13.20;58.80;;;9.64;70.06;94778.38;5090510;28;20438;-49
2022/05/30 05:14:09;;;;;;;5.00;2.45;;;13.50;58.60;;;9.89;69.51;94781.91;5073575;28;20040;-47
2022/05/30 05:16:41;;;;;;;6.13;2.33;;;13.70;58.30;;;10.13;68.55;94787.28;5073428;28;20033;-48
2022/05/30 05:19:10;;;;;;;3.38;2.30;;;13.80;58.00;;;10.23;68.09;94789.84;5053506;28;20634;-50
2022/05/30 05:21:45;;;;;;;4.88;2.10;;;14.00;57.60;;;10.47;67.24;94791.78;5081023;28;20028;-47
2022/05/30 05:24:12;;;;;;;3.40;2.00;;;14.30;57.30;;;10.63;66.66;94793.22;5073561;28;20025;-49
2022/05/30 05:26:49;;;;;;;2.78;2.10;;;14.40;57.00;;;10.92;66.13;94789.66;5074374;28;20056;-47
2022/05/30 05:29:18;;;;;;;2.67;2.17;;;14.70;56.70;;;11.02;65.29;94794.88;5073311;28;20030;-48
2022/05/30 05:31:45;;;;;;;3.10;2.20;;;14.90;56.30;;;11.23;64.68;94796.19;5073366;28;20024;-47
2022/05/30 05:34:14;;;;;;;2.80;2.05;;;15.10;55.90;;;11.44;63.21;94801.22;5052982;28;20028;-49
2022/05/30 05:36:47;;;;;;;2.08;1.88;;;15.30;55.50;;;11.53;63.73;94800.31;5067946;28;20030;-47
2022/05/30 05:39:15;;;;;;;2.88;2.10;;;15.50;55.10;;;11.69;63.00;94803.53;5069367;28;20048;-47
2022/05/30 05:41:44;;;;;;;6.55;2.38;;;15.70;54.70;;;11.77;62.87;94808.22;5072868;28;20050;-47
2022/05/30 05:44:10;;;;;;;3.13;2.10;;;15.90;54.30;;;11.79;62.84;94803.38;5074058;28;20028;-50
2022/05/30 05:46:46;;;;;;;3.92;2.20;;;16.00;53.80;;;11.91;61.62;94802.97;5052915;28;20036;-49
2022/05/30 05:49:12;;;;;;;3.10;2.03;;;16.30;53.30;;;12.05;61.32;94808.34;5068015;28;20074;-52
2022/05/30 05:51:41;;;;;;;3.78;2.15;;;16.40;53.00;;;12.06;60.81;94812.59;5069419;28;20391;-47
2022/05/30 05:54:17;;;;;;;3.80;2.13;;;16.60;52.30;;;12.15;61.11;94810.84;5065016;28;20498;-46
2022/05/30 05:56:49;;;;;;;3.97;2.13;;;16.70;52.00;;;12.30;60.60;94814.34;5073492;28;20047;-50
2022/05/30 05:59:16;;;;;;;3.17;2.07;;;16.80;51.60;;;12.41;59.41;94818.41;5053152;28;20484;-49
2022/05/30 06:01:42;;;;;;;3.60;1.95;;;17.00;51.20;;;12.51;59.35;94823.59;5073975;28;20095;-48
2022/05/30 06:04:11;;;;;;;2.88;1.90;;;17.10;50.80;;;12.78;59.08;94825.47;5064800;28;20218;-51
2022/05/30 06:06:40;;;;;;;4.18;1.98;;;17.30;50.50;;;13.02;58.47;94829.84;5093405;28;20032;-49
2022/05/30 06:09:12;;;;;;;5.50;1.88;;;17.50;50.40;;;13.32;57.41;94821.25;5092719;28;20494;-49
2022/05/30 06:11:43;;;;;;;3.03;2.28;;;17.70;50.00;;;13.40;56.97;94833.09;5071402;28;20024;-51
2022/05/30 06:14:12;;;;;;;3.60;1.90;;;17.90;49.60;;;13.54;56.21;94831.19;5073319;28;20555;-48
2022/05/30 06:16:40;;;;;;;4.40;2.20;;;18.10;49.10;;;13.64;54.98;94830.19;5073309;28;20044;-52
2022/05/30 06:19:13;;;;;;;3.50;2.10;;;18.30;48.50;;;13.75;55.40;94828.84;5070830;28;20139;-47
2022/05/30 06:21:41;;;;;;;2.83;1.95;;;18.50;48.00;;;14.02;55.04;94837.88;5073601;28;20107;-47
2022/05/30 06:24:09;;;;;;;4.82;2.08;;;18.60;47.80;;;14.04;54.80;94835.69;5053654;28;20487;-47
2022/05/30 06:26:35;;;;;;;5.22;2.20;;;18.80;47.40;;;14.19;53.82;94834.53;5073180;28;20028;-47
2022/05/30 06:29:03;;;;;;;2.53;1.90;;;19.00;46.80;;;14.29;53.04;94831.59;5073174;28;20471;-47
2022/05/30 06:31:31;;;;;;;6.20;2.00;;;19.20;46.50;;;14.33;53.86;94833.38;5071987;28;20364;-50
2022/05/30 06:34:06;;;;;;;4.82;2.00;;;19.40;46.00;;;14.46;53.71;94837.06;5071878;28;20028;-50
2022/05/30 06:36:33;;;;;;;3.40;1.83;;;19.60;45.60;;;14.35;52.29;94836.53;5073075;28;20024;-49
2022/05/30 06:39:03;;;;;;;3.17;2.30;;;19.70;44.70;;;14.66;52.70;94841.13;5072028;28;20040;-50
2022/05/30 06:41:31;;;;;;;2.78;1.60;;;19.90;44.50;;;14.77;51.87;94847.03;5071869;28;20020;-50
2022/05/30 06:44:08;;;;;;;4.80;2.05;;;20.00;44.00;;;14.76;51.81;94850.78;5072041;28;20036;-48
2022/05/30 06:46:36;;;;;;;3.72;2.00;;;20.20;43.40;;;14.63;51.85;94857.81;5071832;28;20016;-50
2022/05/30 06:49:06;;;;;;;2.88;1.65;;;20.30;43.00;;;14.64;51.77;94847.91;5071907;28;20171;-50
2022/05/30 06:51:36;;;;;;;3.42;1.90;;;20.50;42.60;;;14.75;50.41;94860.72;5071800;28;20040;-48
2022/05/30 06:54:05;;;;;;;2.83;2.15;;;20.60;42.00;;;14.84;51.47;94866.13;5071640;28;20050;-49
2022/05/30 06:56:37;;;;;;;2.83;1.92;;;20.70;41.80;;;14.98;50.95;94866.06;5071440;28;20497;-45
2022/05/30 06:59:03;;;;;;;2.55;1.58;;;20.80;41.50;;;15.25;49.05;94859.66;5071771;28;20475;-47
2022/05/30 07:01:34;;;;;;;3.00;2.15;;;21.00;41.30;;;15.25;48.90;94870.41;5071599;28;20025;-48
2022/05/30 07:04:05;;;;;;;3.05;1.90;;;21.10;40.70;;;15.31;50.15;94863.00;5064209;28;20430;-48
2022/05/30 07:06:35;;;;;;;3.58;1.92;;;21.20;40.50;;;15.69;49.55;94874.00;5066588;28;20079;-46
2022/05/30 07:09:06;;;;;;;3.67;2.05;;;21.50;40.50;;;15.32;49.02;94861.91;5091539;28;20035;-48
2022/05/30 07:11:31;;;;;;;3.47;2.25;;;21.60;39.60;;;15.51;48.31;94867.78;5091638;28;20024;-51
2022/05/30 07:14:16;;;;;;;3.42;1.80;;;21.70;39.30;;;15.63;48.44;94867.16;5091603;28;20028;-47
2022/05/30 07:16:42;;;;;;;3.83;1.85;;;21.90;38.80;;;15.74;48.06;94876.56;5092313;28;20032;-48
2022/05/30 07:19:09;;;;;;;2.58;1.50;;;22.00;38.50;;;15.87;47.04;94872.94;5091288;28;20020;-48
2022/05/30 07:21:45;;;;;;;2.25;1.50;;;22.10;38.20;;;16.02;47.41;94882.41;5074698;28;20449;-48
2022/05/30 07:24:12;;;;;;;2.58;1.70;;;22.30;37.80;;;16.14;46.99;94879.09;5091348;28;20036;-48
2022/05/30 07:26:47;;;;;;;3.40;1.55;;;22.40;37.70;;;16.07;46.01;94874.19;5091361;28;20028;-48
2022/05/30 07:29:21;;;;;;;2.50;1.70;;;22.50;37.10;;;16.06;46.61;94864.56;5091318;28;20020;-47
2022/05/30 07:32:01;;;;;;;1.80;1.67;;;22.70;36.60;;;16.41;45.15;94872.59;5074713;28;20027;-47
2022/05/30 07:34:31;;;;;;;2.30;1.77;;;22.80;36.30;;;16.36;45.53;94872.78;5091376;28;20027;-51
2022/05/30 07:37:00;;;;;;;2.75;1.80;;;22.90;35.90;;;16.48;44.45;94864.81;5091180;28;20051;-50
2022/05/30 07:39:26;;;;;;;2.53;1.88;;;23.10;35.40;;;16.47;44.66;94863.25;5074502;28;20028;-47
2022/05/30 07:41:52;;;;;;;2.65;1.60;;;23.20;35.10;;;16.60;44.41;94872.25;5091031;28;20081;-52
2022/05/30 07:44:20;;;;;;;1.85;1.30;;;23.30;34.70;;;16.46;43.50;94871.66;5092210;28;20487;-49
2022/05/30 07:46:48;;;;;;;1.52;1.30;;;23.40;34.40;;;16.47;43.53;94879.38;5091205;28;20087;-51
2022/05/30 07:49:17;;;;;;;5.05;1.67;;;23.50;33.80;;;16.13;46.18;94869.44;5091001;28;20515;-48
2022/05/30 07:51:44;;;;;;;3.00;1.45;;;23.60;33.70;;;16.39;44.11;94882.88;5092272;28;20039;-50
2022/05/30 07:54:15;;;;;;;2.53;1.50;;;23.60;33.40;;;16.80;43.35;94876.19;5092256;28;20051;-48
2022/05/30 07:56:50;;;;;;;3.80;1.60;;;23.70;33.20;;;16.83;43.35;94881.72;5064169;28;20041;-48
2022/05/30 07:59:16;;;;;;;4.05;1.63;;;23.80;32.90;;;16.73;42.93;94887.38;5064371;28;20497;-52
2022/05/30 08:01:41;;;;;;;2.58;1.70;;;23.90;32.60;;;16.77;43.75;94888.38;5087683;28;20090;-48
2022/05/30 08:04:15;;;;;;;1.77;1.35;;;24.00;32.50;;;16.97;42.17;94883.41;5062715;28;20480;-48
2022/05/30 08:06:43;;;;;;;2.85;1.73;;;24.10;32.10;;;16.86;42.88;94880.31;5092137;28;20032;-51
2022/05/30 08:09:19;;;;;;;2.83;1.70;;;24.30;31.60;;;16.79;42.66;94880.75;5073822;28;20391;-47
2022/05/30 08:11:48;;;;;;;3.45;1.75;;;24.30;31.30;;;16.19;44.66;94882.41;5092344;28;20020;-50
2022/05/30 08:14:14;;;;;;;2.67;1.60;;;24.30;31.00;;;16.16;43.14;94884.94;5092038;28;20024;-49
2022/05/30 08:16:39;;;;;;;3.72;1.45;;;24.30;30.80;;;16.45;43.99;94889.66;5074019;28;20383;-49
2022/05/30 08:19:09;;;;;;;2.17;1.48;;;24.30;30.80;;;16.65;42.90;94902.44;5071682;28;20475;-53
2022/05/30 08:21:35;;;;;;;2.38;1.52;;;24.30;30.80;;;16.89;42.30;94887.69;5071746;28;20475;-47
2022/05/30 08:24:08;;;;;;;2.00;1.52;;;24.40;30.80;;;17.18;40.84;94888.88;5071752;28;20036;-46
2022/05/30 08:26:40;;;;;;;2.38;1.50;;;24.50;30.60;;;17.25;40.21;94895.34;5071873;28;20111;-46
2022/05/30 08:29:08;;;;;;;3.30;1.70;;;24.70;30.00;;;16.70;41.92;94898.78;5073536;28;20383;-46
2022/05/30 08:31:40;;;;;;;1.98;1.58;;;24.70;29.60;;;16.87;43.41;94890.72;5074500;28;20028;-51
2022/05/30 08:34:06;;;;;;;3.30;1.45;;;24.80;29.70;;;17.18;40.29;94892.38;5075527;28;20035;-48
2022/05/30 08:36:35;;;;;;;2.25;1.70;;;24.80;29.50;;;16.76;41.13;94894.06;5075375;28;20024;-48
2022/05/30 08:41:48;;;;;;;1.95;1.50;;;25.00;28.90;;;17.66;38.18;94891.16;5075433;28;20035;-48
2022/05/30 08:44:13;;;;;;;2.50;1.42;;;25.00;28.80;;;18.08;37.35;94898.53;5074104;28;20027;-51
2022/05/30 08:47:12;;;;;;;1.55;1.40;;;25.20;28.60;;;18.35;37.25;94895.31;5073317;28;20025;-47
2022/05/30 08:49:47;;;;;;;3.78;2.00;;;25.40;28.40;;;18.21;37.61;94897.50;5074080;28;20109;-48
2022/05/30 08:52:42;;;;;;;5.18;1.60;;;25.60;28.30;;;17.61;37.02;94898.63;5074120;28;20063;-47
2022/05/30 08:55:41;;;;;;;3.05;1.60;;;25.70;27.60;;;17.87;37.23;94898.53;5075259;28;20028;-48
2022/05/30 08:58:59;;;;;;;3.13;1.73;;;25.80;27.40;;;18.30;35.29;94900.91;5074987;28;20055;-48
2022/05/30 09:01:47;;;;;;;2.70;1.40;;;25.90;27.00;;;17.57;34.20;94895.81;5074897;28;20032;-47
2022/05/30 09:04:47;;;;;;;1.58;1.33;;;26.10;26.00;;;18.41;33.43;94902.06;5055215;28;20029;-48
2022/05/30 09:07:43;;;;;;;2.22;1.33;;;26.10;25.80;;;18.31;36.58;94907.09;5074980;28;20071;-47
2022/05/30 09:10:33;;;;;;;2.22;1.30;;;26.20;26.00;;;18.62;35.89;94898.56;5074895;28;20024;-47
2022/05/30 09:13:06;;;;;;;2.88;1.58;;;26.30;26.30;;;18.83;35.15;94902.00;5075091;28;20028;-47
2022/05/30 09:15:45;;;;;;;1.45;1.10;;;26.50;26.00;;;19.02;35.41;94908.81;5073715;28;20491;-47
2022/05/30 09:18:45;;;;;;;1.48;1.20;;;26.40;26.10;;;19.12;34.60;94908.41;5073619;28;20476;-48
2022/05/30 09:21:16;;;;;;;1.67;1.30;;;26.20;26.20;;;19.64;34.97;94899.66;5073842;28;20029;-51
2022/05/30 09:23:48;;;;;;;1.80;1.40;;;26.40;26.40;;;19.92;33.45;94904.38;5074810;28;20052;-46
2022/05/30 09:26:28;;;;;;;2.42;1.58;;;26.60;26.30;;;20.37;32.51;94903.38;5074466;28;20032;-50
2022/05/30 09:29:08;;;;;;;2.55;1.42;;;26.90;26.70;;;20.24;31.07;94906.09;5073485;28;20028;-51
2022/05/30 09:32:09;;;;;;;2.17;1.60;;;27.20;25.50;;;20.36;30.09;94912.63;5074555;28;20028;-50
2022/05/30 09:34:49;;;;;;;3.78;1.77;;;27.40;24.60;;;20.80;30.82;94903.44;5074331;28;20108;-47
2022/05/30 09:37:38;;;;;;;2.47;1.55;;;27.60;24.80;;;21.14;29.20;94912.06;5073418;28;20037;-47
2022/05/30 09:40:07;;;;;;;2.90;1.30;;;27.90;24.70;;;21.45;29.43;94900.50;5072994;28;20017;-47
2022/05/30 09:42:50;;;;;;;1.75;1.50;;;28.20;24.40;;;20.69;29.97;94898.91;5074272;28;20024;-51
2022/05/30 09:45:29;;;;;;;4.18;1.35;;;28.30;23.80;;;21.35;30.06;94901.03;5074174;28;20498;-49
2022/05/30 09:48:19;;;;;;;2.40;1.30;;;28.50;23.90;;;20.99;30.40;94907.41;5073031;28;20075;-48
2022/05/30 09:50:54;;;;;;;2.22;1.48;;;28.60;23.80;;;21.03;30.67;94911.81;5073000;28;20029;-49
2022/05/30 09:53:45;;;;;;;2.38;1.77;;;28.70;23.70;;;21.07;29.80;94909.19;5072727;28;20090;-47
2022/05/30 09:56:19;;;;;;;1.92;1.60;;;28.80;23.20;;;22.04;28.84;94914.22;5073736;28;20086;-47
2022/05/30 09:59:26;;;;;;;2.75;1.65;;;28.90;23.40;;;22.23;28.33;94911.59;5072819;28;20390;-47
2022/05/30 10:01:53;;;;;;;2.33;1.60;;;29.10;23.00;;;22.28;27.97;94902.38;5073685;28;20116;-48
2022/05/30 10:04:41;;;;;;;2.70;1.73;;;29.30;22.80;;;22.20;27.59;94911.50;5064588;28;20032;-48
2022/05/30 10:07:20;;;;;;;3.80;1.58;;;29.50;22.40;;;22.68;27.02;94912.09;5092960;28;20034;-52
2022/05/30 10:10:22;;;;;;;5.28;1.67;;;29.60;22.60;;;23.24;27.29;94914.34;5093927;28;20032;-48
2022/05/30 10:13:09;;;;;;;2.92;1.60;;;29.90;22.70;;;22.92;28.70;94911.00;5093919;28;20126;-50
2022/05/30 10:15:43;;;;;;;2.85;1.77;;;30.20;22.40;;;21.91;27.25;94914.34;5092559;28;20028;-48
2022/05/30 10:18:17;;;;;;;4.15;1.88;;;30.20;21.90;;;22.03;28.54;94921.59;5092603;28;20142;-51
2022/05/30 10:21:04;;;;;;;1.90;1.52;;;30.20;21.80;;;22.61;27.53;94918.16;5093645;28;20062;-50
2022/05/30 10:28:20;;;;;;;2.63;1.70;;;30.30;21.90;;;22.83;27.20;94922.09;5059073;28;20039;-48
2022/05/30 10:31:04;;;;;;;3.67;1.40;;;30.50;21.90;;;23.18;27.23;94923.91;5093455;28;20031;-47
2022/05/30 10:33:54;;;;;;;3.42;1.60;;;30.70;21.80;;;23.15;26.10;94933.56;5093464;28;20020;-47
2022/05/30 10:36:48;;;;;;;2.05;1.80;;;30.80;21.70;;;23.59;26.29;94938.59;5092227;28;20078;-50
2022/05/30 10:40:04;;;;;;;3.17;1.80;;;31.10;21.40;;;24.06;26.13;94937.41;5092321;28;20036;-48
2022/05/30 10:42:51;;;;;;;2.70;1.70;;;31.40;21.60;;;23.33;25.77;94934.69;5078020;28;20434;-47
2022/05/30 10:45:47;;;;;;;5.20;1.70;;;31.50;21.00;;;23.17;26.78;94931.28;5075137;28;20553;-47
2022/05/30 10:49:06;;;;;;;3.65;1.70;;;31.50;20.60;;;23.56;26.10;94937.38;5092461;28;20390;-48
2022/05/30 10:52:00;;;;;;;2.17;1.75;;;31.50;20.70;;;23.27;26.05;94933.41;5079222;28;20119;-48
2022/05/30 10:54:47;;;;;;;1.65;1.55;;;31.50;20.50;;;23.08;27.42;94942.38;5092253;28;20103;-47
2022/05/30 10:57:32;;;;;;;1.90;1.48;;;31.50;20.50;;;23.30;26.38;94945.50;5070944;28;20403;-49
2022/05/30 11:00:13;;;;;;;2.67;1.40;;;31.40;20.40;;;23.22;26.22;94941.88;5072266;28;20024;-49
2022/05/30 11:03:00;;;;;;;2.35;1.60;;;31.40;20.20;;;23.35;25.79;94945.19;5073145;28;20064;-48